PWSweather.com
Personal Weather Stations
Station Observations

MakarauRodneyNZ

Lat: -36.52421, Lon: 174.47572

Elevation: 606

Station Type: Davis VP2

http://kaiparaweather.dynu.net/index.php

High Low Average
Temperature 72.4°F22.4°C 60.3°F15.7°C 64.9°F18.3°C
Dew Point 64.0°F17.8°C 57.2°F14.0°C 60.3°F15.7°C
Winds 8.1 mph 13.0 kmh Calm Calm 1.0 mph S1.6 kmh S
Wind Gusts 11.5 mph18.5 kmh -- 2.0 mph3.2 kmh
Humidity 98% 66% 86%
Pressure 30.23 in1023.7 mb 30.14 in1020.7 mb -
Precipitation 0.01 in0.3 mm - -
Hour Temp Dew Point Humidity Winds Wind Gusts Pressure Precip Precip Rate Daily Precip Total
12:00 AM 61.2°F16.2°C 60.6°F15.9°C 98% Calm Calm -- 30.17 in1021.7 mb - 0.00 in0.0 mm 0.00 in0.0 mm
12:10 AM 61.1°F16.2°C 60.5°F15.8°C 98% Calm Calm -- 30.17 in1021.7 mb - 0.00 in0.0 mm 0.00 in0.0 mm
12:20 AM 61.2°F16.2°C 60.6°F15.9°C 98% Calm Calm -- 30.17 in1021.7 mb - 0.00 in0.0 mm 0.00 in0.0 mm
12:30 AM 61.2°F16.2°C 60.6°F15.9°C 98% Calm Calm -- 30.17 in1021.7 mb - 0.00 in0.0 mm 0.00 in0.0 mm
12:40 AM 61.2°F16.2°C 60.6°F15.9°C 98% Calm Calm -- 30.17 in1021.7 mb - 0.00 in0.0 mm 0.00 in0.0 mm
12:50 AM 61.2°F16.2°C 60.6°F15.9°C 98% Calm Calm -- 30.17 in1021.7 mb - 0.00 in0.0 mm 0.00 in0.0 mm
01:00 AM 61.2°F16.2°C 60.6°F15.9°C 98% Calm Calm -- 30.16 in1021.3 mb - 0.00 in0.0 mm 0.00 in0.0 mm
01:10 AM 61.3°F16.3°C 60.7°F15.9°C 98% Calm Calm -- 30.16 in1021.3 mb - 0.00 in0.0 mm 0.00 in0.0 mm
01:20 AM 61.4°F16.3°C 60.8°F16.0°C 98% Calm Calm -- 30.16 in1021.3 mb - 0.00 in0.0 mm 0.00 in0.0 mm
01:30 AM 61.5°F16.4°C 60.9°F16.1°C 98% Calm Calm -- 30.16 in1021.3 mb - 0.00 in0.0 mm 0.00 in0.0 mm
01:40 AM 61.5°F16.4°C 60.9°F16.1°C 98% Calm Calm -- 30.16 in1021.3 mb - 0.00 in0.0 mm 0.00 in0.0 mm
01:50 AM 61.4°F16.3°C 60.8°F16.0°C 98% Calm Calm -- 30.16 in1021.3 mb - 0.00 in0.0 mm 0.00 in0.0 mm
02:00 AM 61.5°F16.4°C 60.9°F16.1°C 98% Calm Calm -- 30.16 in1021.3 mb - 0.00 in0.0 mm 0.00 in0.0 mm
02:10 AM 61.4°F16.3°C 60.8°F16.0°C 98% 1.2 mph S1.9 kmh S 3.5 mph5.6 kmh 30.16 in1021.3 mb - 0.00 in0.0 mm 0.00 in0.0 mm
02:20 AM 61.3°F16.3°C 60.7°F15.9°C 98% Calm Calm -- 30.16 in1021.3 mb - 0.00 in0.0 mm 0.00 in0.0 mm
02:30 AM 61.3°F16.3°C 60.7°F15.9°C 98% Calm Calm -- 30.16 in1021.3 mb - 0.00 in0.0 mm 0.00 in0.0 mm
02:40 AM 61.3°F16.3°C 60.7°F15.9°C 98% Calm Calm -- 30.15 in1021.0 mb - 0.00 in0.0 mm 0.00 in0.0 mm
02:50 AM 61.3°F16.3°C 60.7°F15.9°C 98% Calm Calm -- 30.15 in1021.0 mb - 0.00 in0.0 mm 0.00 in0.0 mm
03:00 AM 61.3°F16.3°C 60.7°F15.9°C 98% Calm Calm -- 30.15 in1021.0 mb - 0.00 in0.0 mm 0.00 in0.0 mm
03:10 AM 61.3°F16.3°C 60.7°F15.9°C 98% Calm Calm -- 30.15 in1021.0 mb - 0.00 in0.0 mm 0.00 in0.0 mm
03:20 AM 61.2°F16.2°C 60.6°F15.9°C 98% Calm Calm 2.3 mph3.7 kmh 30.14 in1020.7 mb - 0.00 in0.0 mm 0.00 in0.0 mm
03:30 AM 61.3°F16.3°C 60.7°F15.9°C 98% 2.3 mph S3.7 kmh S 3.5 mph5.6 kmh 30.14 in1020.7 mb - 0.00 in0.0 mm 0.00 in0.0 mm
03:40 AM 61.3°F16.3°C 60.7°F15.9°C 98% 2.3 mph S3.7 kmh S 3.5 mph5.6 kmh 30.14 in1020.7 mb - 0.00 in0.0 mm 0.00 in0.0 mm
03:50 AM 61.4°F16.3°C 60.8°F16.0°C 98% 2.3 mph S3.7 kmh S 3.5 mph5.6 kmh 30.14 in1020.7 mb - 0.00 in0.0 mm 0.00 in0.0 mm
04:00 AM 61.4°F16.3°C 60.8°F16.0°C 98% 1.2 mph S1.9 kmh S 2.3 mph3.7 kmh 30.14 in1020.7 mb - 0.00 in0.0 mm 0.00 in0.0 mm
04:10 AM 61.0°F16.1°C 60.4°F15.8°C 98% Calm Calm -- 30.15 in1021.0 mb - 0.00 in0.0 mm 0.00 in0.0 mm
04:20 AM 60.8°F16.0°C 60.2°F15.7°C 98% Calm Calm -- 30.15 in1021.0 mb - 0.00 in0.0 mm 0.00 in0.0 mm
04:30 AM 60.7°F15.9°C 60.1°F15.6°C 98% Calm Calm -- 30.15 in1021.0 mb - 0.01 in0.3 mm 0.01 in0.3 mm
04:40 AM 60.7°F15.9°C 60.1°F15.6°C 98% Calm Calm -- 30.15 in1021.0 mb - 0.00 in0.0 mm 0.01 in0.3 mm
04:50 AM 60.7°F15.9°C 60.1°F15.6°C 98% Calm Calm -- 30.15 in1021.0 mb - 0.00 in0.0 mm 0.01 in0.3 mm
05:00 AM 60.7°F15.9°C 60.1°F15.6°C 98% Calm Calm -- 30.15 in1021.0 mb - 0.00 in0.0 mm 0.01 in0.3 mm
05:10 AM 60.7°F15.9°C 60.1°F15.6°C 98% Calm Calm -- 30.15 in1021.0 mb - 0.00 in0.0 mm 0.01 in0.3 mm
05:20 AM 60.8°F16.0°C 60.2°F15.7°C 98% Calm Calm -- 30.15 in1021.0 mb - 0.00 in0.0 mm 0.01 in0.3 mm
05:30 AM 61.0°F16.1°C 60.4°F15.8°C 98% Calm Calm -- 30.15 in1021.0 mb - 0.00 in0.0 mm 0.01 in0.3 mm
05:40 AM 61.0°F16.1°C 60.4°F15.8°C 98% Calm Calm -- 30.16 in1021.3 mb - 0.00 in0.0 mm 0.01 in0.3 mm
05:50 AM 61.1°F16.2°C 60.5°F15.8°C 98% Calm Calm -- 30.15 in1021.0 mb - 0.00 in0.0 mm 0.01 in0.3 mm
06:00 AM 61.0°F16.1°C 60.4°F15.8°C 98% Calm Calm -- 30.16 in1021.3 mb - 0.00 in0.0 mm 0.01 in0.3 mm
06:10 AM 60.6°F15.9°C 60.0°F15.6°C 98% Calm Calm -- 30.16 in1021.3 mb - 0.00 in0.0 mm 0.01 in0.3 mm
06:20 AM 60.9°F16.1°C 60.3°F15.7°C 98% Calm Calm -- 30.16 in1021.3 mb - 0.00 in0.0 mm 0.01 in0.3 mm
06:30 AM 61.1°F16.2°C 60.5°F15.8°C 98% 2.3 mph S3.7 kmh S 3.5 mph5.6 kmh 30.16 in1021.3 mb - 0.00 in0.0 mm 0.01 in0.3 mm
06:40 AM 60.9°F16.1°C 60.4°F15.8°C 98% 2.3 mph S3.7 kmh S 3.5 mph5.6 kmh 30.16 in1021.3 mb - 0.00 in0.0 mm 0.01 in0.3 mm
06:50 AM 61.1°F16.2°C 60.5°F15.8°C 98% 3.5 mph S5.6 kmh S 3.5 mph5.6 kmh 30.16 in1021.3 mb - 0.00 in0.0 mm 0.01 in0.3 mm
07:00 AM 61.4°F16.3°C 60.8°F16.0°C 98% 1.2 mph S1.9 kmh S 2.3 mph3.7 kmh 30.17 in1021.7 mb - 0.00 in0.0 mm 0.01 in0.3 mm
07:10 AM 61.5°F16.4°C 60.9°F16.1°C 98% Calm Calm -- 30.17 in1021.7 mb - 0.00 in0.0 mm 0.01 in0.3 mm
07:20 AM 61.3°F16.3°C 60.7°F15.9°C 98% Calm Calm -- 30.17 in1021.7 mb - 0.00 in0.0 mm 0.01 in0.3 mm
07:30 AM 61.2°F16.2°C 60.6°F15.9°C 98% Calm Calm -- 30.17 in1021.7 mb - 0.00 in0.0 mm 0.01 in0.3 mm
07:40 AM 61.0°F16.1°C 60.4°F15.8°C 98% 1.2 mph S1.9 kmh S 3.5 mph5.6 kmh 30.18 in1022.0 mb - 0.00 in0.0 mm 0.01 in0.3 mm
07:50 AM 61.5°F16.4°C 60.9°F16.1°C 98% Calm Calm -- 30.18 in1022.0 mb - 0.00 in0.0 mm 0.01 in0.3 mm
08:00 AM 61.8°F16.6°C 61.2°F16.2°C 98% Calm Calm -- 30.18 in1022.0 mb - 0.00 in0.0 mm 0.01 in0.3 mm
08:10 AM 61.9°F16.6°C 61.3°F16.3°C 98% Calm Calm -- 30.18 in1022.0 mb - 0.00 in0.0 mm 0.01 in0.3 mm
08:20 AM 62.3°F16.8°C 61.7°F16.5°C 98% Calm Calm -- 30.18 in1022.0 mb - 0.00 in0.0 mm 0.01 in0.3 mm
08:30 AM 62.5°F16.9°C 61.6°F16.4°C 97% Calm Calm -- 30.18 in1022.0 mb - 0.00 in0.0 mm 0.01 in0.3 mm
08:40 AM 62.5°F16.9°C 61.4°F16.3°C 96% Calm Calm 3.5 mph5.6 kmh 30.18 in1022.0 mb - 0.00 in0.0 mm 0.01 in0.3 mm
08:50 AM 62.9°F17.2°C 61.4°F16.3°C 95% 2.3 mph S3.7 kmh S 3.5 mph5.6 kmh 30.18 in1022.0 mb - 0.00 in0.0 mm 0.01 in0.3 mm
09:00 AM 63.7°F17.6°C 61.6°F16.4°C 93% Calm Calm -- 30.19 in1022.4 mb - 0.00 in0.0 mm 0.01 in0.3 mm
09:10 AM 64.5°F18.1°C 61.8°F16.6°C 91% 1.2 mph S1.9 kmh S 3.5 mph5.6 kmh 30.19 in1022.4 mb - 0.00 in0.0 mm 0.01 in0.3 mm
09:20 AM 65.0°F18.3°C 62.3°F16.8°C 91% Calm Calm 3.5 mph5.6 kmh 30.18 in1022.0 mb - 0.00 in0.0 mm 0.01 in0.3 mm
09:30 AM 65.1°F18.4°C 61.8°F16.6°C 89% 2.3 mph S3.7 kmh S 3.5 mph5.6 kmh 30.18 in1022.0 mb - 0.00 in0.0 mm 0.01 in0.3 mm
09:40 AM 65.7°F18.7°C 62.1°F16.7°C 88% 1.2 mph SSE1.9 kmh SSE 2.3 mph3.7 kmh 30.19 in1022.4 mb - 0.00 in0.0 mm 0.01 in0.3 mm
09:50 AM 65.4°F18.6°C 61.1°F16.2°C 86% 4.6 mph SSW7.4 kmh SSW 8.1 mph13.0 kmh 30.18 in1022.0 mb - 0.00 in0.0 mm 0.01 in0.3 mm
10:00 AM 65.8°F18.8°C 60.5°F15.8°C 83% 4.6 mph S7.4 kmh S 6.9 mph11.1 kmh 30.19 in1022.4 mb - 0.00 in0.0 mm 0.01 in0.3 mm
10:10 AM 66.2°F19.0°C 59.8°F15.4°C 80% 3.5 mph SSW5.6 kmh SSW 5.8 mph9.3 kmh 30.18 in1022.0 mb - 0.00 in0.0 mm 0.01 in0.3 mm
10:20 AM 66.5°F19.2°C 59.1°F15.1°C 77% 1.2 mph SSW1.9 kmh SSW -- 30.18 in1022.0 mb - 0.00 in0.0 mm 0.01 in0.3 mm
10:30 AM 67.0°F19.4°C 60.6°F15.9°C 80% Calm Calm -- 30.18 in1022.0 mb - 0.00 in0.0 mm 0.01 in0.3 mm
10:40 AM 67.7°F19.8°C 60.9°F16.1°C 79% 1.2 mph SSE1.9 kmh SSE 3.5 mph5.6 kmh 30.18 in1022.0 mb - 0.00 in0.0 mm 0.01 in0.3 mm
10:50 AM 68.6°F20.3°C 61.5°F16.4°C 78% 3.5 mph S5.6 kmh S 4.6 mph7.4 kmh 30.18 in1022.0 mb - 0.00 in0.0 mm 0.01 in0.3 mm
11:00 AM 68.2°F20.1°C 61.4°F16.3°C 79% 2.3 mph S3.7 kmh S 3.5 mph5.6 kmh 30.18 in1022.0 mb - 0.00 in0.0 mm 0.01 in0.3 mm
11:10 AM 67.2°F19.6°C 61.5°F16.4°C 82% Calm Calm -- 30.18 in1022.0 mb - 0.00 in0.0 mm 0.01 in0.3 mm
11:20 AM 67.2°F19.6°C 59.0°F15.0°C 75% Calm Calm -- 30.18 in1022.0 mb - 0.00 in0.0 mm 0.01 in0.3 mm
11:30 AM 68.4°F20.2°C 60.5°F15.8°C 76% Calm Calm -- 30.18 in1022.0 mb - 0.00 in0.0 mm 0.01 in0.3 mm
11:40 AM 69.6°F20.9°C 62.8°F17.1°C 79% 2.3 mph SW3.7 kmh SW 5.8 mph9.3 kmh 30.18 in1022.0 mb - 0.00 in0.0 mm 0.01 in0.3 mm
11:50 AM 69.5°F20.8°C 62.7°F17.1°C 79% 1.2 mph SW1.9 kmh SW 3.5 mph5.6 kmh 30.18 in1022.0 mb - 0.00 in0.0 mm 0.01 in0.3 mm
12:00 PM 69.6°F20.9°C 61.7°F16.5°C 76% Calm Calm -- 30.17 in1021.7 mb - 0.00 in0.0 mm 0.01 in0.3 mm
12:10 PM 70.4°F21.3°C 63.2°F17.3°C 78% 3.5 mph WSW5.6 kmh WSW 3.5 mph5.6 kmh 30.18 in1022.0 mb - 0.00 in0.0 mm 0.01 in0.3 mm
12:20 PM 71.1°F21.7°C 63.5°F17.5°C 77% Calm Calm -- 30.17 in1021.7 mb - 0.00 in0.0 mm 0.01 in0.3 mm
12:30 PM 71.6°F22.0°C 64.0°F17.8°C 77% 3.5 mph WSW5.6 kmh WSW 5.8 mph9.3 kmh 30.17 in1021.7 mb - 0.00 in0.0 mm 0.01 in0.3 mm
12:40 PM 71.7°F22.1°C 62.1°F16.7°C 72% 3.5 mph SW5.6 kmh SW 3.5 mph5.6 kmh 30.16 in1021.3 mb - 0.00 in0.0 mm 0.01 in0.3 mm
12:50 PM 70.5°F21.4°C 62.2°F16.8°C 75% 3.5 mph SW5.6 kmh SW 4.6 mph7.4 kmh 30.16 in1021.3 mb - 0.00 in0.0 mm 0.01 in0.3 mm
01:00 PM 70.3°F21.3°C 62.0°F16.7°C 75% 3.5 mph SW5.6 kmh SW 5.8 mph9.3 kmh 30.16 in1021.3 mb - 0.00 in0.0 mm 0.01 in0.3 mm
01:10 PM 70.3°F21.3°C 62.4°F16.9°C 76% 2.3 mph SSW3.7 kmh SSW 8.1 mph13.0 kmh 30.15 in1021.0 mb - 0.00 in0.0 mm 0.01 in0.3 mm
01:20 PM 71.1°F21.7°C 61.6°F16.4°C 72% Calm Calm -- 30.15 in1021.0 mb - 0.00 in0.0 mm 0.01 in0.3 mm
01:30 PM 71.5°F21.9°C 62.8°F17.1°C 74% 3.5 mph SSW5.6 kmh SSW 8.1 mph13.0 kmh 30.15 in1021.0 mb - 0.00 in0.0 mm 0.01 in0.3 mm
01:40 PM 71.4°F21.9°C 62.7°F17.1°C 74% 1.2 mph SW1.9 kmh SW -- 30.15 in1021.0 mb - 0.00 in0.0 mm 0.01 in0.3 mm
01:50 PM 72.1°F22.3°C 61.7°F16.5°C 70% 5.8 mph WSW9.3 kmh WSW 8.1 mph13.0 kmh 30.15 in1021.0 mb - 0.00 in0.0 mm 0.01 in0.3 mm
02:00 PM 71.8°F22.1°C 60.7°F15.9°C 68% 5.8 mph S9.3 kmh S 9.2 mph14.8 kmh 30.15 in1021.0 mb - 0.00 in0.0 mm 0.01 in0.3 mm
02:10 PM 71.8°F22.1°C 61.9°F16.6°C 71% Calm Calm -- 30.15 in1021.0 mb - 0.00 in0.0 mm 0.01 in0.3 mm
02:20 PM 72.3°F22.4°C 62.4°F16.9°C 71% 4.6 mph WSW7.4 kmh WSW 4.6 mph7.4 kmh 30.15 in1021.0 mb - 0.00 in0.0 mm 0.01 in0.3 mm
02:30 PM 72.4°F22.4°C 62.0°F16.7°C 70% 3.5 mph SW5.6 kmh SW 3.5 mph5.6 kmh 30.15 in1021.0 mb - 0.00 in0.0 mm 0.01 in0.3 mm
02:40 PM 71.9°F22.2°C 62.4°F16.9°C 72% 3.5 mph SW5.6 kmh SW 6.9 mph11.1 kmh 30.15 in1021.0 mb - 0.00 in0.0 mm 0.01 in0.3 mm
02:50 PM 72.4°F22.4°C 61.6°F16.4°C 69% 2.3 mph SW3.7 kmh SW 9.2 mph14.8 kmh 30.15 in1021.0 mb - 0.00 in0.0 mm 0.01 in0.3 mm
03:00 PM 72.4°F22.4°C 62.5°F16.9°C 71% 4.6 mph W7.4 kmh W 11.5 mph18.5 kmh 30.14 in1020.7 mb - 0.00 in0.0 mm 0.01 in0.3 mm
03:10 PM 71.6°F22.0°C 59.7°F15.4°C 66% 1.2 mph S1.9 kmh S -- 30.14 in1020.7 mb - 0.00 in0.0 mm 0.01 in0.3 mm
03:20 PM 71.9°F22.2°C 61.2°F16.2°C 69% 3.5 mph WSW5.6 kmh WSW 10.4 mph16.7 kmh 30.14 in1020.7 mb - 0.00 in0.0 mm 0.01 in0.3 mm
03:30 PM 72.0°F22.2°C 60.9°F16.1°C 68% 4.6 mph SSW7.4 kmh SSW 9.2 mph14.8 kmh 30.14 in1020.7 mb - 0.00 in0.0 mm 0.01 in0.3 mm
03:40 PM 71.5°F21.9°C 60.8°F16.0°C 69% 8.1 mph WSW13.0 kmh WSW 11.5 mph18.5 kmh 30.14 in1020.7 mb - 0.00 in0.0 mm 0.01 in0.3 mm
03:50 PM 72.1°F22.3°C 61.0°F16.1°C 68% 1.2 mph SW1.9 kmh SW 8.1 mph13.0 kmh 30.14 in1020.7 mb - 0.00 in0.0 mm 0.01 in0.3 mm
04:00 PM 72.3°F22.4°C 60.8°F16.0°C 67% 5.8 mph WSW9.3 kmh WSW 8.1 mph13.0 kmh 30.14 in1020.7 mb - 0.00 in0.0 mm 0.01 in0.3 mm
04:10 PM 72.4°F22.4°C 61.3°F16.3°C 68% Calm Calm -- 30.14 in1020.7 mb - 0.00 in0.0 mm 0.01 in0.3 mm
04:20 PM 72.1°F22.3°C 61.3°F16.3°C 69% Calm Calm 4.6 mph7.4 kmh 30.14 in1020.7 mb - 0.00 in0.0 mm 0.01 in0.3 mm
04:30 PM 71.6°F22.0°C 61.3°F16.3°C 70% Calm Calm -- 30.14 in1020.7 mb - 0.00 in0.0 mm 0.01 in0.3 mm
04:40 PM 71.2°F21.8°C 60.5°F15.8°C 69% 6.9 mph SSW11.1 kmh SSW 10.4 mph16.7 kmh 30.14 in1020.7 mb - 0.00 in0.0 mm 0.01 in0.3 mm
04:50 PM 69.9°F21.1°C 59.2°F15.1°C 69% 3.5 mph S5.6 kmh S 6.9 mph11.1 kmh 30.14 in1020.7 mb - 0.00 in0.0 mm 0.01 in0.3 mm
05:00 PM 69.8°F21.0°C 60.0°F15.6°C 71% 2.3 mph SSW3.7 kmh SSW 8.1 mph13.0 kmh 30.14 in1020.7 mb - 0.00 in0.0 mm 0.01 in0.3 mm
05:10 PM 69.5°F20.8°C 60.1°F15.6°C 72% 4.6 mph SSW7.4 kmh SSW 8.1 mph13.0 kmh 30.14 in1020.7 mb - 0.00 in0.0 mm 0.01 in0.3 mm
05:20 PM 69.1°F20.6°C 59.7°F15.4°C 72% 3.5 mph SSW5.6 kmh SSW 5.8 mph9.3 kmh 30.14 in1020.7 mb - 0.00 in0.0 mm 0.01 in0.3 mm
05:30 PM 68.6°F20.3°C 59.6°F15.3°C 73% 2.3 mph SSW3.7 kmh SSW 8.1 mph13.0 kmh 30.14 in1020.7 mb - 0.00 in0.0 mm 0.01 in0.3 mm
05:40 PM 67.9°F19.9°C 58.9°F14.9°C 73% 4.6 mph SSW7.4 kmh SSW 6.9 mph11.1 kmh 30.15 in1021.0 mb - 0.00 in0.0 mm 0.01 in0.3 mm
05:50 PM 67.3°F19.6°C 59.1°F15.1°C 75% 3.5 mph S5.6 kmh S 5.8 mph9.3 kmh 30.15 in1021.0 mb - 0.00 in0.0 mm 0.01 in0.3 mm
06:00 PM 66.7°F19.3°C 58.9°F14.9°C 76% Calm Calm 3.5 mph5.6 kmh 30.15 in1021.0 mb - 0.00 in0.0 mm 0.01 in0.3 mm
06:10 PM 66.1°F18.9°C 58.4°F14.7°C 76% 3.5 mph S5.6 kmh S 4.6 mph7.4 kmh 30.16 in1021.3 mb - 0.00 in0.0 mm 0.01 in0.3 mm
06:20 PM 65.7°F18.7°C 58.7°F14.8°C 78% 3.5 mph S5.6 kmh S 3.5 mph5.6 kmh 30.16 in1021.3 mb - 0.00 in0.0 mm 0.01 in0.3 mm
06:30 PM 65.1°F18.4°C 58.8°F14.9°C 80% Calm Calm -- 30.16 in1021.3 mb - 0.00 in0.0 mm 0.01 in0.3 mm
06:40 PM 64.9°F18.3°C 58.6°F14.8°C 80% 2.3 mph S3.7 kmh S 3.5 mph5.6 kmh 30.16 in1021.3 mb - 0.00 in0.0 mm 0.01 in0.3 mm
06:50 PM 64.5°F18.1°C 58.6°F14.8°C 81% Calm Calm -- 30.17 in1021.7 mb - 0.00 in0.0 mm 0.01 in0.3 mm
07:00 PM 64.1°F17.8°C 58.1°F14.5°C 81% Calm Calm -- 30.17 in1021.7 mb - 0.00 in0.0 mm 0.01 in0.3 mm
07:10 PM 63.8°F17.7°C 57.8°F14.3°C 81% Calm Calm -- 30.18 in1022.0 mb - 0.00 in0.0 mm 0.01 in0.3 mm
07:20 PM 63.7°F17.6°C 57.8°F14.3°C 81% Calm Calm -- 30.18 in1022.0 mb - 0.00 in0.0 mm 0.01 in0.3 mm
07:30 PM 63.8°F17.7°C 57.9°F14.4°C 81% Calm Calm -- 30.18 in1022.0 mb - 0.00 in0.0 mm 0.01 in0.3 mm
07:40 PM 63.6°F17.6°C 58.0°F14.4°C 82% Calm Calm -- 30.19 in1022.4 mb - 0.00 in0.0 mm 0.01 in0.3 mm
07:50 PM 63.9°F17.7°C 58.3°F14.6°C 82% Calm Calm -- 30.19 in1022.4 mb - 0.00 in0.0 mm 0.01 in0.3 mm
08:00 PM 64.2°F17.9°C 58.9°F14.9°C 83% Calm Calm -- 30.20 in1022.7 mb - 0.00 in0.0 mm 0.01 in0.3 mm
08:10 PM 64.0°F17.8°C 58.7°F14.8°C 83% Calm Calm -- 30.20 in1022.7 mb - 0.00 in0.0 mm 0.01 in0.3 mm
08:20 PM 63.9°F17.7°C 58.3°F14.6°C 82% Calm Calm -- 30.20 in1022.7 mb - 0.00 in0.0 mm 0.01 in0.3 mm
08:30 PM 64.0°F17.8°C 58.4°F14.7°C 82% Calm Calm -- 30.20 in1022.7 mb - 0.00 in0.0 mm 0.01 in0.3 mm
08:40 PM 64.0°F17.8°C 58.4°F14.7°C 82% Calm Calm -- 30.20 in1022.7 mb - 0.00 in0.0 mm 0.01 in0.3 mm
08:50 PM 64.2°F17.9°C 58.2°F14.6°C 81% Calm Calm -- 30.21 in1023.0 mb - 0.00 in0.0 mm 0.01 in0.3 mm
09:00 PM 64.3°F17.9°C 58.3°F14.6°C 81% Calm Calm -- 30.21 in1023.0 mb - 0.00 in0.0 mm 0.01 in0.3 mm
09:10 PM 64.0°F17.8°C 58.1°F14.5°C 81% Calm Calm -- 30.21 in1023.0 mb - 0.00 in0.0 mm 0.01 in0.3 mm
09:20 PM 63.5°F17.5°C 57.9°F14.4°C 82% Calm Calm -- 30.21 in1023.0 mb - 0.00 in0.0 mm 0.01 in0.3 mm
09:30 PM 63.2°F17.3°C 58.0°F14.4°C 83% Calm Calm -- 30.21 in1023.0 mb - 0.00 in0.0 mm 0.01 in0.3 mm
09:40 PM 63.3°F17.4°C 58.1°F14.5°C 83% Calm Calm -- 30.21 in1023.0 mb - 0.00 in0.0 mm 0.01 in0.3 mm
09:50 PM 63.1°F17.3°C 57.9°F14.4°C 83% Calm Calm -- 30.21 in1023.0 mb - 0.00 in0.0 mm 0.01 in0.3 mm
10:00 PM 63.0°F17.2°C 58.1°F14.5°C 84% Calm Calm -- 30.21 in1023.0 mb - 0.00 in0.0 mm 0.01 in0.3 mm
10:10 PM 62.9°F17.2°C 58.0°F14.4°C 84% Calm Calm -- 30.21 in1023.0 mb - 0.00 in0.0 mm 0.01 in0.3 mm
10:20 PM 62.7°F17.1°C 58.1°F14.5°C 85% Calm Calm -- 30.22 in1023.4 mb - 0.00 in0.0 mm 0.01 in0.3 mm
10:30 PM 62.5°F16.9°C 57.9°F14.4°C 85% Calm Calm -- 30.22 in1023.4 mb - 0.00 in0.0 mm 0.01 in0.3 mm
10:40 PM 62.0°F16.7°C 57.8°F14.3°C 86% Calm Calm -- 30.22 in1023.4 mb - 0.00 in0.0 mm 0.01 in0.3 mm
10:50 PM 61.4°F16.3°C 57.5°F14.2°C 87% Calm Calm -- 30.22 in1023.4 mb - 0.00 in0.0 mm 0.01 in0.3 mm
11:00 PM 60.9°F16.1°C 57.3°F14.1°C 88% Calm Calm -- 30.23 in1023.7 mb - 0.00 in0.0 mm 0.01 in0.3 mm
11:10 PM 60.5°F15.8°C 57.2°F14.0°C 89% Calm Calm -- 30.22 in1023.4 mb - 0.00 in0.0 mm 0.01 in0.3 mm
11:20 PM 60.3°F15.7°C 57.4°F14.1°C 90% Calm Calm -- 30.23 in1023.7 mb - 0.00 in0.0 mm 0.01 in0.3 mm
11:30 PM 60.8°F16.0°C 57.8°F14.3°C 90% Calm Calm -- 30.23 in1023.7 mb - 0.00 in0.0 mm 0.01 in0.3 mm
11:40 PM 60.9°F16.1°C 57.6°F14.2°C 89% Calm Calm -- 30.23 in1023.7 mb - 0.00 in0.0 mm 0.01 in0.3 mm
11:50 PM 60.6°F15.9°C 57.6°F14.2°C 90% Calm Calm -- 30.22 in1023.4 mb - 0.00 in0.0 mm 0.01 in0.3 mm